sensor_id;sensor_type;location;lat;lon;timestamp;P1;durP1;ratioP1;P2;durP2;ratioP2
19167;SDS011;9716;53.114;18.040;2023-11-19T00:00:30;28.37;;;8.93;;
19167;SDS011;9716;53.114;18.040;2023-11-19T00:03:20;20.23;;;8.17;;
19167;SDS011;9716;53.114;18.040;2023-11-19T00:05:48;17.40;;;7.53;;
19167;SDS011;9716;53.114;18.040;2023-11-19T00:08:19;21.30;;;8.97;;
19167;SDS011;9716;53.114;18.040;2023-11-19T00:10:48;22.93;;;9.80;;
19167;SDS011;9716;53.114;18.040;2023-11-19T00:13:17;18.67;;;9.10;;
19167;SDS011;9716;53.114;18.040;2023-11-19T00:15:47;24.40;;;9.77;;
19167;SDS011;9716;53.114;18.040;2023-11-19T00:18:16;22.03;;;9.57;;
19167;SDS011;9716;53.114;18.040;2023-11-19T00:20:45;21.87;;;9.67;;
19167;SDS011;9716;53.114;18.040;2023-11-19T00:23:15;25.97;;;8.50;;
19167;SDS011;9716;53.114;18.040;2023-11-19T00:25:45;20.83;;;8.67;;
19167;SDS011;9716;53.114;18.040;2023-11-19T00:28:15;24.90;;;9.07;;
19167;SDS011;9716;53.114;18.040;2023-11-19T00:30:43;22.10;;;8.63;;
19167;SDS011;9716;53.114;18.040;2023-11-19T00:33:12;19.10;;;8.07;;
19167;SDS011;9716;53.114;18.040;2023-11-19T00:35:42;23.10;;;9.20;;
19167;SDS011;9716;53.114;18.040;2023-11-19T00:38:11;20.70;;;9.13;;
19167;SDS011;9716;53.114;18.040;2023-11-19T00:40:39;19.97;;;8.43;;
19167;SDS011;9716;53.114;18.040;2023-11-19T00:43:10;22.03;;;9.20;;
19167;SDS011;9716;53.114;18.040;2023-11-19T00:45:38;18.80;;;7.90;;
19167;SDS011;9716;53.114;18.040;2023-11-19T00:48:07;20.50;;;10.33;;
19167;SDS011;9716;53.114;18.040;2023-11-19T00:50:35;17.80;;;8.53;;
19167;SDS011;9716;53.114;18.040;2023-11-19T00:53:06;25.17;;;9.83;;
19167;SDS011;9716;53.114;18.040;2023-11-19T00:55:34;21.43;;;9.47;;
19167;SDS011;9716;53.114;18.040;2023-11-19T00:58:14;20.23;;;10.33;;
19167;SDS011;9716;53.114;18.040;2023-11-19T01:00:44;23.23;;;9.53;;
19167;SDS011;9716;53.114;18.040;2023-11-19T01:03:12;24.10;;;9.57;;
19167;SDS011;9716;53.114;18.040;2023-11-19T01:05:42;22.23;;;9.77;;
19167;SDS011;9716;53.114;18.040;2023-11-19T01:08:11;24.83;;;9.87;;
19167;SDS011;9716;53.114;18.040;2023-11-19T01:10:39;21.47;;;9.73;;
19167;SDS011;9716;53.114;18.040;2023-11-19T01:13:08;21.03;;;9.60;;
19167;SDS011;9716;53.114;18.040;2023-11-19T01:15:38;20.53;;;9.63;;
19167;SDS011;9716;53.114;18.040;2023-11-19T01:18:08;18.77;;;9.60;;
19167;SDS011;9716;53.114;18.040;2023-11-19T01:20:37;24.53;;;10.23;;
19167;SDS011;9716;53.114;18.040;2023-11-19T01:23:05;24.53;;;11.40;;
19167;SDS011;9716;53.114;18.040;2023-11-19T01:25:34;19.63;;;8.83;;
19167;SDS011;9716;53.114;18.040;2023-11-19T01:28:05;21.87;;;10.23;;
19167;SDS011;9716;53.114;18.040;2023-11-19T01:30:33;20.03;;;8.53;;
19167;SDS011;9716;53.114;18.040;2023-11-19T01:33:03;19.70;;;8.67;;
19167;SDS011;9716;53.114;18.040;2023-11-19T01:35:34;18.00;;;8.53;;
19167;SDS011;9716;53.114;18.040;2023-11-19T01:38:02;21.77;;;9.97;;
19167;SDS011;9716;53.114;18.040;2023-11-19T01:40:31;21.03;;;9.47;;
19167;SDS011;9716;53.114;18.040;2023-11-19T01:42:59;24.23;;;9.63;;
19167;SDS011;9716;53.114;18.040;2023-11-19T01:45:28;20.63;;;9.00;;
19167;SDS011;9716;53.114;18.040;2023-11-19T01:47:58;22.97;;;9.20;;
19167;SDS011;9716;53.114;18.040;2023-11-19T01:50:31;25.40;;;10.57;;
19167;SDS011;9716;53.114;18.040;2023-11-19T01:53:01;24.10;;;10.13;;
19167;SDS011;9716;53.114;18.040;2023-11-19T01:55:29;23.07;;;9.93;;
19167;SDS011;9716;53.114;18.040;2023-11-19T01:57:59;31.87;;;11.27;;
19167;SDS011;9716;53.114;18.040;2023-11-19T02:00:29;26.20;;;10.97;;
19167;SDS011;9716;53.114;18.040;2023-11-19T02:03:00;25.10;;;10.40;;
19167;SDS011;9716;53.114;18.040;2023-11-19T02:05:31;29.50;;;10.80;;
19167;SDS011;9716;53.114;18.040;2023-11-19T02:08:00;25.83;;;10.53;;
19167;SDS011;9716;53.114;18.040;2023-11-19T02:10:29;29.47;;;10.23;;
19167;SDS011;9716;53.114;18.040;2023-11-19T02:12:59;27.03;;;10.03;;
19167;SDS011;9716;53.114;18.040;2023-11-19T02:15:32;28.27;;;11.17;;
19167;SDS011;9716;53.114;18.040;2023-11-19T02:18:17;29.83;;;10.63;;
19167;SDS011;9716;53.114;18.040;2023-11-19T02:20:48;23.40;;;9.90;;
19167;SDS011;9716;53.114;18.040;2023-11-19T02:23:17;24.77;;;10.50;;
19167;SDS011;9716;53.114;18.040;2023-11-19T02:25:53;28.07;;;10.37;;
19167;SDS011;9716;53.114;18.040;2023-11-19T02:28:31;23.70;;;10.70;;
19167;SDS011;9716;53.114;18.040;2023-11-19T02:30:59;27.83;;;11.30;;
19167;SDS011;9716;53.114;18.040;2023-11-19T02:33:28;27.50;;;10.83;;
19167;SDS011;9716;53.114;18.040;2023-11-19T02:35:56;22.93;;;10.17;;
19167;SDS011;9716;53.114;18.040;2023-11-19T02:38:25;23.87;;;9.53;;
19167;SDS011;9716;53.114;18.040;2023-11-19T02:40:53;25.90;;;10.67;;
19167;SDS011;9716;53.114;18.040;2023-11-19T02:43:22;30.10;;;11.10;;
19167;SDS011;9716;53.114;18.040;2023-11-19T02:45:52;26.70;;;9.83;;
19167;SDS011;9716;53.114;18.040;2023-11-19T02:48:22;25.93;;;10.57;;
19167;SDS011;9716;53.114;18.040;2023-11-19T02:50:51;23.00;;;10.47;;
19167;SDS011;9716;53.114;18.040;2023-11-19T02:53:20;21.80;;;10.13;;
19167;SDS011;9716;53.114;18.040;2023-11-19T02:55:49;27.57;;;10.43;;
19167;SDS011;9716;53.114;18.040;2023-11-19T02:58:18;26.40;;;9.77;;
19167;SDS011;9716;53.114;18.040;2023-11-19T03:00:52;27.93;;;9.80;;
19167;SDS011;9716;53.114;18.040;2023-11-19T03:03:24;26.60;;;10.53;;
19167;SDS011;9716;53.114;18.040;2023-11-19T03:05:57;22.93;;;10.20;;
19167;SDS011;9716;53.114;18.040;2023-11-19T03:08:29;21.37;;;9.63;;
19167;SDS011;9716;53.114;18.040;2023-11-19T03:10:57;27.03;;;11.23;;
19167;SDS011;9716;53.114;18.040;2023-11-19T03:13:26;27.43;;;10.80;;
19167;SDS011;9716;53.114;18.040;2023-11-19T03:15:55;26.37;;;11.57;;
19167;SDS011;9716;53.114;18.040;2023-11-19T03:18:24;30.70;;;10.83;;
19167;SDS011;9716;53.114;18.040;2023-11-19T03:20:53;24.77;;;11.43;;
19167;SDS011;9716;53.114;18.040;2023-11-19T03:23:22;22.43;;;10.50;;
19167;SDS011;9716;53.114;18.040;2023-11-19T03:25:50;25.53;;;11.73;;
19167;SDS011;9716;53.114;18.040;2023-11-19T03:28:19;31.63;;;12.33;;
19167;SDS011;9716;53.114;18.040;2023-11-19T03:30:47;28.23;;;10.10;;
19167;SDS011;9716;53.114;18.040;2023-11-19T03:33:17;29.23;;;10.77;;
19167;SDS011;9716;53.114;18.040;2023-11-19T03:35:45;27.80;;;12.27;;
19167;SDS011;9716;53.114;18.040;2023-11-19T03:38:14;20.97;;;9.40;;
19167;SDS011;9716;53.114;18.040;2023-11-19T03:40:42;24.43;;;11.10;;
19167;SDS011;9716;53.114;18.040;2023-11-19T03:43:11;26.77;;;11.27;;
19167;SDS011;9716;53.114;18.040;2023-11-19T03:45:39;25.90;;;10.57;;
19167;SDS011;9716;53.114;18.040;2023-11-19T03:48:08;19.80;;;9.57;;
19167;SDS011;9716;53.114;18.040;2023-11-19T03:50:38;24.60;;;11.23;;
19167;SDS011;9716;53.114;18.040;2023-11-19T03:53:07;22.23;;;10.13;;
19167;SDS011;9716;53.114;18.040;2023-11-19T03:55:35;20.40;;;9.67;;
19167;SDS011;9716;53.114;18.040;2023-11-19T03:58:03;24.73;;;10.27;;
19167;SDS011;9716;53.114;18.040;2023-11-19T04:00:32;23.93;;;9.97;;
19167;SDS011;9716;53.114;18.040;2023-11-19T04:03:01;23.30;;;10.30;;
19167;SDS011;9716;53.114;18.040;2023-11-19T04:05:30;18.80;;;9.00;;
19167;SDS011;9716;53.114;18.040;2023-11-19T04:08:00;21.80;;;9.60;;
19167;SDS011;9716;53.114;18.040;2023-11-19T04:10:28;25.27;;;10.77;;
19167;SDS011;9716;53.114;18.040;2023-11-19T04:12:56;23.57;;;9.73;;
19167;SDS011;9716;53.114;18.040;2023-11-19T04:15:25;22.37;;;9.57;;
19167;SDS011;9716;53.114;18.040;2023-11-19T04:17:53;20.10;;;9.43;;
19167;SDS011;9716;53.114;18.040;2023-11-19T04:20:21;21.07;;;8.93;;
19167;SDS011;9716;53.114;18.040;2023-11-19T04:22:50;19.87;;;9.73;;
19167;SDS011;9716;53.114;18.040;2023-11-19T04:25:21;26.53;;;9.27;;
19167;SDS011;9716;53.114;18.040;2023-11-19T04:27:53;20.00;;;9.03;;
19167;SDS011;9716;53.114;18.040;2023-11-19T04:30:21;25.83;;;10.60;;
19167;SDS011;9716;53.114;18.040;2023-11-19T04:32:49;21.47;;;10.63;;
19167;SDS011;9716;53.114;18.040;2023-11-19T04:35:18;21.60;;;9.67;;
19167;SDS011;9716;53.114;18.040;2023-11-19T04:37:47;22.87;;;9.00;;
19167;SDS011;9716;53.114;18.040;2023-11-19T04:40:15;21.07;;;9.83;;
19167;SDS011;9716;53.114;18.040;2023-11-19T04:42:46;18.70;;;8.23;;
19167;SDS011;9716;53.114;18.040;2023-11-19T04:45:15;29.23;;;10.47;;
19167;SDS011;9716;53.114;18.040;2023-11-19T04:47:43;21.87;;;9.20;;
19167;SDS011;9716;53.114;18.040;2023-11-19T04:50:12;18.13;;;8.93;;
19167;SDS011;9716;53.114;18.040;2023-11-19T04:52:40;20.13;;;9.50;;
19167;SDS011;9716;53.114;18.040;2023-11-19T04:55:12;23.00;;;9.20;;
19167;SDS011;9716;53.114;18.040;2023-11-19T04:57:41;18.00;;;8.23;;
19167;SDS011;9716;53.114;18.040;2023-11-19T05:00:12;19.83;;;8.80;;
19167;SDS011;9716;53.114;18.040;2023-11-19T05:02:43;23.13;;;10.20;;
19167;SDS011;9716;53.114;18.040;2023-11-19T05:05:12;24.23;;;10.43;;
19167;SDS011;9716;53.114;18.040;2023-11-19T05:07:41;20.03;;;8.27;;
19167;SDS011;9716;53.114;18.040;2023-11-19T05:10:09;23.50;;;9.50;;
19167;SDS011;9716;53.114;18.040;2023-11-19T05:12:38;21.10;;;10.43;;
19167;SDS011;9716;53.114;18.040;2023-11-19T05:15:08;24.23;;;10.53;;
19167;SDS011;9716;53.114;18.040;2023-11-19T05:17:40;21.70;;;10.30;;
19167;SDS011;9716;53.114;18.040;2023-11-19T05:20:08;24.83;;;9.63;;
19167;SDS011;9716;53.114;18.040;2023-11-19T05:22:40;21.80;;;9.33;;
19167;SDS011;9716;53.114;18.040;2023-11-19T05:25:09;28.47;;;9.90;;
19167;SDS011;9716;53.114;18.040;2023-11-19T05:27:38;18.47;;;10.20;;
19167;SDS011;9716;53.114;18.040;2023-11-19T05:30:07;22.03;;;10.67;;
19167;SDS011;9716;53.114;18.040;2023-11-19T05:32:37;21.30;;;10.37;;
19167;SDS011;9716;53.114;18.040;2023-11-19T05:35:07;21.17;;;9.70;;
19167;SDS011;9716;53.114;18.040;2023-11-19T05:37:36;22.10;;;10.17;;
19167;SDS011;9716;53.114;18.040;2023-11-19T05:40:05;22.80;;;9.23;;
19167;SDS011;9716;53.114;18.040;2023-11-19T05:42:42;19.53;;;8.97;;
19167;SDS011;9716;53.114;18.040;2023-11-19T05:45:12;20.63;;;10.20;;
19167;SDS011;9716;53.114;18.040;2023-11-19T05:47:42;20.67;;;9.40;;
19167;SDS011;9716;53.114;18.040;2023-11-19T05:50:11;20.33;;;7.97;;
19167;SDS011;9716;53.114;18.040;2023-11-19T05:52:39;18.63;;;8.57;;
19167;SDS011;9716;53.114;18.040;2023-11-19T05:55:08;22.77;;;9.37;;
19167;SDS011;9716;53.114;18.040;2023-11-19T05:57:37;21.73;;;9.80;;
19167;SDS011;9716;53.114;18.040;2023-11-19T06:00:10;17.70;;;8.63;;
19167;SDS011;9716;53.114;18.040;2023-11-19T06:02:44;16.00;;;7.77;;
19167;SDS011;9716;53.114;18.040;2023-11-19T06:05:12;23.20;;;8.93;;
19167;SDS011;9716;53.114;18.040;2023-11-19T06:07:41;21.83;;;8.97;;
19167;SDS011;9716;53.114;18.040;2023-11-19T06:10:09;16.90;;;7.50;;
19167;SDS011;9716;53.114;18.040;2023-11-19T06:12:39;19.87;;;8.70;;
19167;SDS011;9716;53.114;18.040;2023-11-19T06:15:08;22.73;;;8.63;;
19167;SDS011;9716;53.114;18.040;2023-11-19T06:17:38;19.77;;;8.90;;
19167;SDS011;9716;53.114;18.040;2023-11-19T06:20:09;16.07;;;8.47;;
19167;SDS011;9716;53.114;18.040;2023-11-19T06:22:39;16.50;;;7.87;;
19167;SDS011;9716;53.114;18.040;2023-11-19T06:25:09;15.83;;;8.20;;
19167;SDS011;9716;53.114;18.040;2023-11-19T06:27:39;16.37;;;7.60;;
19167;SDS011;9716;53.114;18.040;2023-11-19T06:30:07;15.03;;;7.17;;
19167;SDS011;9716;53.114;18.040;2023-11-19T06:32:37;20.03;;;8.37;;
19167;SDS011;9716;53.114;18.040;2023-11-19T06:35:05;14.93;;;6.87;;
19167;SDS011;9716;53.114;18.040;2023-11-19T06:37:38;17.97;;;7.93;;
19167;SDS011;9716;53.114;18.040;2023-11-19T06:40:07;14.27;;;7.00;;
19167;SDS011;9716;53.114;18.040;2023-11-19T06:42:37;15.20;;;6.80;;
19167;SDS011;9716;53.114;18.040;2023-11-19T06:45:06;18.87;;;8.23;;
19167;SDS011;9716;53.114;18.040;2023-11-19T06:47:35;18.27;;;7.53;;
19167;SDS011;9716;53.114;18.040;2023-11-19T06:50:04;15.90;;;8.33;;
19167;SDS011;9716;53.114;18.040;2023-11-19T06:52:35;19.30;;;8.33;;
19167;SDS011;9716;53.114;18.040;2023-11-19T06:55:05;15.23;;;7.23;;
19167;SDS011;9716;53.114;18.040;2023-11-19T06:57:35;14.20;;;7.27;;
19167;SDS011;9716;53.114;18.040;2023-11-19T07:00:04;18.73;;;7.73;;
19167;SDS011;9716;53.114;18.040;2023-11-19T07:02:33;16.53;;;7.40;;
19167;SDS011;9716;53.114;18.040;2023-11-19T07:05:02;18.53;;;7.90;;
19167;SDS011;9716;53.114;18.040;2023-11-19T07:07:32;14.27;;;7.67;;
19167;SDS011;9716;53.114;18.040;2023-11-19T07:10:01;16.93;;;7.90;;
19167;SDS011;9716;53.114;18.040;2023-11-19T07:12:31;14.10;;;6.97;;
19167;SDS011;9716;53.114;18.040;2023-11-19T07:15:02;16.23;;;7.60;;
19167;SDS011;9716;53.114;18.040;2023-11-19T07:17:31;12.13;;;6.17;;
19167;SDS011;9716;53.114;18.040;2023-11-19T07:19:59;13.50;;;6.83;;
19167;SDS011;9716;53.114;18.040;2023-11-19T07:22:28;13.53;;;6.63;;
19167;SDS011;9716;53.114;18.040;2023-11-19T07:24:56;17.80;;;7.20;;
19167;SDS011;9716;53.114;18.040;2023-11-19T07:27:27;15.67;;;5.73;;
19167;SDS011;9716;53.114;18.040;2023-11-19T07:29:55;14.93;;;6.80;;
19167;SDS011;9716;53.114;18.040;2023-11-19T07:32:24;18.37;;;8.27;;
19167;SDS011;9716;53.114;18.040;2023-11-19T07:34:53;13.57;;;6.37;;
19167;SDS011;9716;53.114;18.040;2023-11-19T07:37:23;16.30;;;7.30;;
19167;SDS011;9716;53.114;18.040;2023-11-19T07:39:51;14.30;;;6.03;;
19167;SDS011;9716;53.114;18.040;2023-11-19T07:42:20;15.03;;;6.53;;
19167;SDS011;9716;53.114;18.040;2023-11-19T07:44:50;13.47;;;6.87;;
19167;SDS011;9716;53.114;18.040;2023-11-19T07:47:21;14.33;;;6.70;;
19167;SDS011;9716;53.114;18.040;2023-11-19T07:49:50;19.10;;;6.57;;
19167;SDS011;9716;53.114;18.040;2023-11-19T07:52:19;17.33;;;6.63;;
19167;SDS011;9716;53.114;18.040;2023-11-19T07:54:48;11.60;;;6.37;;
19167;SDS011;9716;53.114;18.040;2023-11-19T07:57:16;14.80;;;6.67;;
19167;SDS011;9716;53.114;18.040;2023-11-19T07:59:45;13.53;;;6.53;;
19167;SDS011;9716;53.114;18.040;2023-11-19T08:02:15;11.97;;;5.87;;
19167;SDS011;9716;53.114;18.040;2023-11-19T08:04:43;14.13;;;6.23;;
19167;SDS011;9716;53.114;18.040;2023-11-19T08:07:13;15.93;;;7.83;;
19167;SDS011;9716;53.114;18.040;2023-11-19T08:09:41;13.63;;;6.17;;
19167;SDS011;9716;53.114;18.040;2023-11-19T08:12:10;14.50;;;6.70;;
19167;SDS011;9716;53.114;18.040;2023-11-19T08:14:40;18.80;;;7.47;;
19167;SDS011;9716;53.114;18.040;2023-11-19T08:17:09;17.90;;;8.47;;
19167;SDS011;9716;53.114;18.040;2023-11-19T08:19:39;21.00;;;8.37;;
19167;SDS011;9716;53.114;18.040;2023-11-19T08:22:07;18.30;;;8.53;;
19167;SDS011;9716;53.114;18.040;2023-11-19T08:24:36;16.87;;;7.13;;
19167;SDS011;9716;53.114;18.040;2023-11-19T08:27:04;15.47;;;7.57;;
19167;SDS011;9716;53.114;18.040;2023-11-19T08:29:33;19.70;;;7.20;;
19167;SDS011;9716;53.114;18.040;2023-11-19T08:32:02;15.70;;;7.60;;
19167;SDS011;9716;53.114;18.040;2023-11-19T08:34:31;14.23;;;7.07;;
19167;SDS011;9716;53.114;18.040;2023-11-19T08:37:01;16.07;;;7.20;;
19167;SDS011;9716;53.114;18.040;2023-11-19T08:39:29;14.77;;;6.67;;
19167;SDS011;9716;53.114;18.040;2023-11-19T08:41:58;16.47;;;7.23;;
19167;SDS011;9716;53.114;18.040;2023-11-19T08:44:27;15.50;;;7.00;;
19167;SDS011;9716;53.114;18.040;2023-11-19T08:46:55;16.80;;;7.80;;
19167;SDS011;9716;53.114;18.040;2023-11-19T08:49:23;13.57;;;6.77;;
19167;SDS011;9716;53.114;18.040;2023-11-19T08:51:52;17.40;;;7.87;;
19167;SDS011;9716;53.114;18.040;2023-11-19T08:54:22;14.17;;;6.70;;
19167;SDS011;9716;53.114;18.040;2023-11-19T08:56:51;15.63;;;6.87;;
19167;SDS011;9716;53.114;18.040;2023-11-19T08:59:20;15.60;;;7.27;;
19167;SDS011;9716;53.114;18.040;2023-11-19T09:01:48;13.80;;;6.83;;
19167;SDS011;9716;53.114;18.040;2023-11-19T09:04:17;15.50;;;6.37;;
19167;SDS011;9716;53.114;18.040;2023-11-19T09:06:49;18.77;;;7.17;;
19167;SDS011;9716;53.114;18.040;2023-11-19T09:09:17;17.60;;;8.60;;
19167;SDS011;9716;53.114;18.040;2023-11-19T09:11:47;16.80;;;7.07;;
19167;SDS011;9716;53.114;18.040;2023-11-19T09:14:16;16.87;;;7.13;;
19167;SDS011;9716;53.114;18.040;2023-11-19T09:16:45;13.93;;;6.50;;
19167;SDS011;9716;53.114;18.040;2023-11-19T09:19:13;14.60;;;6.47;;
19167;SDS011;9716;53.114;18.040;2023-11-19T09:21:42;18.77;;;7.43;;
19167;SDS011;9716;53.114;18.040;2023-11-19T09:24:10;17.13;;;7.67;;
19167;SDS011;9716;53.114;18.040;2023-11-19T09:26:42;16.03;;;7.23;;
19167;SDS011;9716;53.114;18.040;2023-11-19T09:29:12;14.83;;;7.23;;
19167;SDS011;9716;53.114;18.040;2023-11-19T09:31:41;16.03;;;8.03;;
19167;SDS011;9716;53.114;18.040;2023-11-19T09:34:10;15.33;;;7.30;;
19167;SDS011;9716;53.114;18.040;2023-11-19T09:36:38;20.43;;;8.13;;
19167;SDS011;9716;53.114;18.040;2023-11-19T09:39:10;20.73;;;7.70;;
19167;SDS011;9716;53.114;18.040;2023-11-19T09:41:39;18.17;;;8.10;;
19167;SDS011;9716;53.114;18.040;2023-11-19T09:44:08;19.30;;;7.97;;
19167;SDS011;9716;53.114;18.040;2023-11-19T09:46:40;21.63;;;8.23;;
19167;SDS011;9716;53.114;18.040;2023-11-19T09:49:09;20.33;;;8.47;;
19167;SDS011;9716;53.114;18.040;2023-11-19T09:51:38;20.80;;;8.73;;
19167;SDS011;9716;53.114;18.040;2023-11-19T09:54:06;22.27;;;7.73;;
19167;SDS011;9716;53.114;18.040;2023-11-19T09:56:36;22.77;;;9.83;;
19167;SDS011;9716;53.114;18.040;2023-11-19T09:59:06;16.20;;;7.47;;
19167;SDS011;9716;53.114;18.040;2023-11-19T10:01:37;20.53;;;8.93;;
19167;SDS011;9716;53.114;18.040;2023-11-19T10:04:07;20.73;;;9.20;;
19167;SDS011;9716;53.114;18.040;2023-11-19T10:06:37;22.90;;;8.90;;
19167;SDS011;9716;53.114;18.040;2023-11-19T10:09:06;20.53;;;8.63;;
19167;SDS011;9716;53.114;18.040;2023-11-19T10:11:34;17.67;;;8.40;;
19167;SDS011;9716;53.114;18.040;2023-11-19T10:14:03;21.83;;;8.80;;
19167;SDS011;9716;53.114;18.040;2023-11-19T10:16:31;22.90;;;8.97;;
19167;SDS011;9716;53.114;18.040;2023-11-19T10:19:02;17.47;;;8.73;;
19167;SDS011;9716;53.114;18.040;2023-11-19T10:21:33;20.93;;;10.07;;
19167;SDS011;9716;53.114;18.040;2023-11-19T10:24:02;20.40;;;8.60;;
19167;SDS011;9716;53.114;18.040;2023-11-19T10:26:35;19.03;;;8.60;;
19167;SDS011;9716;53.114;18.040;2023-11-19T10:29:04;29.13;;;10.10;;
19167;SDS011;9716;53.114;18.040;2023-11-19T10:31:33;24.43;;;9.97;;
19167;SDS011;9716;53.114;18.040;2023-11-19T10:34:01;19.27;;;8.13;;
19167;SDS011;9716;53.114;18.040;2023-11-19T10:36:38;25.27;;;8.77;;
19167;SDS011;9716;53.114;18.040;2023-11-19T10:39:08;21.30;;;8.90;;
19167;SDS011;9716;53.114;18.040;2023-11-19T10:41:37;22.57;;;9.40;;
19167;SDS011;9716;53.114;18.040;2023-11-19T10:44:05;20.73;;;9.37;;
19167;SDS011;9716;53.114;18.040;2023-11-19T10:46:36;19.13;;;9.17;;
19167;SDS011;9716;53.114;18.040;2023-11-19T10:49:06;20.10;;;8.57;;
19167;SDS011;9716;53.114;18.040;2023-11-19T10:51:35;24.90;;;9.73;;
19167;SDS011;9716;53.114;18.040;2023-11-19T10:54:05;22.83;;;9.87;;
19167;SDS011;9716;53.114;18.040;2023-11-19T10:56:34;24.20;;;9.33;;
19167;SDS011;9716;53.114;18.040;2023-11-19T10:59:03;19.53;;;7.97;;
19167;SDS011;9716;53.114;18.040;2023-11-19T11:01:50;20.80;;;8.53;;
19167;SDS011;9716;53.114;18.040;2023-11-19T11:07:15;22.27;;;9.07;;
19167;SDS011;9716;53.114;18.040;2023-11-19T11:10:03;20.90;;;9.00;;
19167;SDS011;9716;53.114;18.040;2023-11-19T11:12:36;20.93;;;9.00;;
19167;SDS011;9716;53.114;18.040;2023-11-19T11:15:06;27.50;;;9.20;;
19167;SDS011;9716;53.114;18.040;2023-11-19T11:17:36;22.37;;;8.70;;
19167;SDS011;9716;53.114;18.040;2023-11-19T11:20:07;23.70;;;9.93;;
19167;SDS011;9716;53.114;18.040;2023-11-19T11:22:42;21.03;;;8.40;;
19167;SDS011;9716;53.114;18.040;2023-11-19T11:25:26;23.60;;;9.03;;
19167;SDS011;9716;53.114;18.040;2023-11-19T11:28:10;23.53;;;8.93;;
19167;SDS011;9716;53.114;18.040;2023-11-19T11:30:48;21.77;;;8.77;;
19167;SDS011;9716;53.114;18.040;2023-11-19T11:33:32;16.77;;;8.20;;
19167;SDS011;9716;53.114;18.040;2023-11-19T11:36:11;26.77;;;9.87;;
19167;SDS011;9716;53.114;18.040;2023-11-19T11:38:47;23.20;;;9.37;;
19167;SDS011;9716;53.114;18.040;2023-11-19T11:41:19;20.17;;;8.57;;
19167;SDS011;9716;53.114;18.040;2023-11-19T11:43:54;21.43;;;8.93;;
19167;SDS011;9716;53.114;18.040;2023-11-19T11:49:27;25.50;;;11.07;;
19167;SDS011;9716;53.114;18.040;2023-11-19T11:51:58;20.87;;;9.00;;
19167;SDS011;9716;53.114;18.040;2023-11-19T11:54:28;26.63;;;9.90;;
19167;SDS011;9716;53.114;18.040;2023-11-19T11:57:02;22.37;;;8.80;;
19167;SDS011;9716;53.114;18.040;2023-11-19T11:59:47;20.23;;;8.67;;
19167;SDS011;9716;53.114;18.040;2023-11-19T12:02:17;22.77;;;10.40;;
19167;SDS011;9716;53.114;18.040;2023-11-19T12:04:48;26.77;;;10.87;;
19167;SDS011;9716;53.114;18.040;2023-11-19T12:07:18;28.00;;;10.47;;
19167;SDS011;9716;53.114;18.040;2023-11-19T12:09:48;27.10;;;9.87;;
19167;SDS011;9716;53.114;18.040;2023-11-19T12:12:22;23.97;;;10.97;;
19167;SDS011;9716;53.114;18.040;2023-11-19T12:15:05;28.93;;;12.00;;
19167;SDS011;9716;53.114;18.040;2023-11-19T12:17:43;27.50;;;11.03;;
19167;SDS011;9716;53.114;18.040;2023-11-19T12:20:17;34.40;;;12.60;;
19167;SDS011;9716;53.114;18.040;2023-11-19T12:22:50;23.67;;;10.67;;
19167;SDS011;9716;53.114;18.040;2023-11-19T12:25:20;31.43;;;12.10;;
19167;SDS011;9716;53.114;18.040;2023-11-19T12:27:50;31.50;;;12.10;;
19167;SDS011;9716;53.114;18.040;2023-11-19T12:30:21;27.33;;;11.70;;
19167;SDS011;9716;53.114;18.040;2023-11-19T12:32:50;23.53;;;10.53;;
19167;SDS011;9716;53.114;18.040;2023-11-19T12:35:21;21.77;;;10.37;;
19167;SDS011;9716;53.114;18.040;2023-11-19T12:37:51;38.93;;;13.33;;
19167;SDS011;9716;53.114;18.040;2023-11-19T12:40:21;32.50;;;11.50;;
19167;SDS011;9716;53.114;18.040;2023-11-19T12:42:52;25.43;;;11.13;;
19167;SDS011;9716;53.114;18.040;2023-11-19T12:45:22;30.60;;;10.97;;
19167;SDS011;9716;53.114;18.040;2023-11-19T12:48:04;30.70;;;11.77;;
19167;SDS011;9716;53.114;18.040;2023-11-19T12:53:19;36.07;;;11.73;;
19167;SDS011;9716;53.114;18.040;2023-11-19T12:55:48;35.13;;;12.27;;
19167;SDS011;9716;53.114;18.040;2023-11-19T12:58:32;35.60;;;13.10;;
19167;SDS011;9716;53.114;18.040;2023-11-19T13:01:03;35.43;;;12.77;;
19167;SDS011;9716;53.114;18.040;2023-11-19T13:03:32;35.37;;;12.30;;
19167;SDS011;9716;53.114;18.040;2023-11-19T13:06:03;28.63;;;12.20;;
19167;SDS011;9716;53.114;18.040;2023-11-19T13:08:38;31.43;;;12.43;;
19167;SDS011;9716;53.114;18.040;2023-11-19T13:11:07;39.13;;;12.33;;
19167;SDS011;9716;53.114;18.040;2023-11-19T13:13:56;31.23;;;11.93;;
19167;SDS011;9716;53.114;18.040;2023-11-19T13:16:27;26.27;;;12.10;;
19167;SDS011;9716;53.114;18.040;2023-11-19T13:18:56;28.03;;;10.10;;
19167;SDS011;9716;53.114;18.040;2023-11-19T13:21:26;30.13;;;11.63;;
19167;SDS011;9716;53.114;18.040;2023-11-19T13:23:54;26.67;;;10.70;;
19167;SDS011;9716;53.114;18.040;2023-11-19T13:26:23;25.77;;;10.10;;
19167;SDS011;9716;53.114;18.040;2023-11-19T13:28:51;30.60;;;12.13;;
19167;SDS011;9716;53.114;18.040;2023-11-19T13:31:22;22.90;;;9.20;;
19167;SDS011;9716;53.114;18.040;2023-11-19T13:33:50;26.57;;;10.27;;
19167;SDS011;9716;53.114;18.040;2023-11-19T13:36:19;29.47;;;9.77;;
19167;SDS011;9716;53.114;18.040;2023-11-19T13:38:47;27.57;;;9.57;;
19167;SDS011;9716;53.114;18.040;2023-11-19T13:41:16;24.43;;;10.20;;
19167;SDS011;9716;53.114;18.040;2023-11-19T13:43:44;27.17;;;9.83;;
19167;SDS011;9716;53.114;18.040;2023-11-19T13:46:13;25.50;;;8.00;;
19167;SDS011;9716;53.114;18.040;2023-11-19T13:48:43;32.13;;;10.37;;
19167;SDS011;9716;53.114;18.040;2023-11-19T13:51:11;28.87;;;9.27;;
19167;SDS011;9716;53.114;18.040;2023-11-19T13:53:40;26.03;;;10.80;;
19167;SDS011;9716;53.114;18.040;2023-11-19T13:56:12;31.30;;;10.37;;
19167;SDS011;9716;53.114;18.040;2023-11-19T13:58:41;28.97;;;9.60;;
19167;SDS011;9716;53.114;18.040;2023-11-19T14:01:09;23.30;;;9.97;;
19167;SDS011;9716;53.114;18.040;2023-11-19T14:03:40;24.33;;;10.43;;
19167;SDS011;9716;53.114;18.040;2023-11-19T14:06:11;30.20;;;10.70;;
19167;SDS011;9716;53.114;18.040;2023-11-19T14:08:39;32.93;;;9.97;;
19167;SDS011;9716;53.114;18.040;2023-11-19T14:11:08;24.67;;;8.90;;
19167;SDS011;9716;53.114;18.040;2023-11-19T14:13:36;26.63;;;10.57;;
19167;SDS011;9716;53.114;18.040;2023-11-19T14:16:05;25.87;;;10.37;;
19167;SDS011;9716;53.114;18.040;2023-11-19T14:18:36;23.73;;;9.80;;
19167;SDS011;9716;53.114;18.040;2023-11-19T14:21:05;26.10;;;10.90;;
19167;SDS011;9716;53.114;18.040;2023-11-19T14:23:35;30.10;;;10.67;;
19167;SDS011;9716;53.114;18.040;2023-11-19T14:26:04;23.87;;;9.63;;
19167;SDS011;9716;53.114;18.040;2023-11-19T14:28:32;28.17;;;10.43;;
19167;SDS011;9716;53.114;18.040;2023-11-19T14:31:01;22.73;;;9.97;;
19167;SDS011;9716;53.114;18.040;2023-11-19T14:33:29;21.70;;;8.70;;
19167;SDS011;9716;53.114;18.040;2023-11-19T14:35:59;22.57;;;9.43;;
19167;SDS011;9716;53.114;18.040;2023-11-19T14:38:27;23.43;;;10.33;;
19167;SDS011;9716;53.114;18.040;2023-11-19T14:40:57;24.20;;;10.07;;
19167;SDS011;9716;53.114;18.040;2023-11-19T14:43:26;17.17;;;8.40;;
19167;SDS011;9716;53.114;18.040;2023-11-19T14:45:54;20.77;;;8.90;;
19167;SDS011;9716;53.114;18.040;2023-11-19T14:48:23;22.30;;;8.47;;
19167;SDS011;9716;53.114;18.040;2023-11-19T14:50:52;22.07;;;9.67;;
19167;SDS011;9716;53.114;18.040;2023-11-19T14:53:20;20.13;;;8.40;;
19167;SDS011;9716;53.114;18.040;2023-11-19T14:55:49;20.70;;;8.03;;